Time;durP1;ratioP1;P1;durP2;ratioP2;P2;SDS_P1;SDS_P2;PMS_P1;PMS_P2;Temp;Humidity;BMP_temperature;BMP_pressure;BME280_temperature;BME280_humidity;BME280_pressure;Samples;Min_cycle;Max_cycle;Signal;HPM_P1;HPM_P2
2021/03/08 00:00:48;;;;;;;21.60;11.25;;;1.80;99.90;;;;;;5088230;28;20024;-52
2021/03/08 00:03:15;;;;;;;25.83;11.73;;;1.80;99.90;;;;;;5092312;28;20111;-50
2021/03/08 00:05:41;;;;;;;17.23;10.20;;;1.80;99.90;;;;;;5097028;28;20050;-53
2021/03/08 00:08:07;;;;;;;27.05;11.52;;;1.80;99.90;;;;;;5092882;28;20027;-51
2021/03/08 00:10:32;;;;;;;19.00;11.38;;;1.80;99.90;;;;;;5094291;28;20096;-58
2021/03/08 00:12:58;;;;;;;24.73;13.13;;;1.80;99.90;;;;;;5095452;28;20070;-54
2021/03/08 00:15:24;;;;;;;24.77;12.65;;;1.80;99.90;;;;;;5089692;28;20020;-56
2021/03/08 00:17:50;;;;;;;20.13;11.95;;;1.90;99.90;;;;;;5087598;28;20077;-53
2021/03/08 00:20:19;;;;;;;22.02;11.18;;;1.90;99.90;;;;;;5093130;28;20398;-55
2021/03/08 00:22:45;;;;;;;18.02;11.30;;;1.90;99.90;;;;;;5091775;28;20028;-53
2021/03/08 00:25:17;;;;;;;22.50;12.20;;;1.90;99.90;;;;;;5088419;28;20089;-56
2021/03/08 00:27:43;;;;;;;21.60;12.68;;;1.90;99.90;;;;;;5093844;28;20024;-54
2021/03/08 00:30:10;;;;;;;24.90;11.82;;;1.90;99.90;;;;;;5090440;28;20028;-52
2021/03/08 00:32:36;;;;;;;24.25;12.57;;;1.90;99.90;;;;;;5094074;28;20020;-55
2021/03/08 00:35:04;;;;;;;21.20;12.68;;;1.90;99.90;;;;;;5092146;28;20028;-56
2021/03/08 00:37:32;;;;;;;20.98;10.75;;;1.90;99.90;;;;;;5091972;28;20020;-56
2021/03/08 00:39:59;;;;;;;18.88;10.48;;;1.90;99.90;;;;;;5090211;28;20031;-56
2021/03/08 00:42:25;;;;;;;23.27;12.35;;;1.90;99.90;;;;;;5088146;28;20032;-55
2021/03/08 00:44:51;;;;;;;21.45;11.68;;;1.90;99.90;;;;;;5088067;28;20168;-56
2021/03/08 00:47:17;;;;;;;21.90;11.60;;;1.90;99.90;;;;;;5089031;28;20035;-54
2021/03/08 00:49:42;;;;;;;19.92;11.60;;;2.00;99.90;;;;;;5091512;28;20024;-56
2021/03/08 00:52:08;;;;;;;24.85;12.27;;;1.90;99.90;;;;;;5091325;28;20416;-55
2021/03/08 00:54:33;;;;;;;23.27;13.15;;;1.90;99.90;;;;;;5087370;28;20103;-55
2021/03/08 00:56:59;;;;;;;20.05;11.68;;;1.90;99.90;;;;;;5095596;28;20032;-54
2021/03/08 00:59:24;;;;;;;20.73;11.80;;;1.90;99.90;;;;;;5086423;28;20044;-55
2021/03/08 01:01:50;;;;;;;26.70;12.98;;;1.90;99.90;;;;;;5090531;28;20024;-55
2021/03/08 01:04:16;;;;;;;25.55;12.80;;;1.90;99.90;;;;;;5091681;28;20082;-53
2021/03/08 01:06:41;;;;;;;21.55;11.85;;;2.00;99.90;;;;;;5091069;28;20076;-56
2021/03/08 01:09:07;;;;;;;29.98;13.20;;;2.00;99.90;;;;;;5092841;28;20032;-56
2021/03/08 01:11:34;;;;;;;23.75;12.13;;;2.00;99.90;;;;;;5091303;28;20016;-53
2021/03/08 01:14:00;;;;;;;22.90;12.80;;;2.00;99.90;;;;;;5090936;28;20394;-53
2021/03/08 01:16:26;;;;;;;21.48;11.63;;;2.10;99.90;;;;;;5090657;28;20031;-53
2021/03/08 01:18:52;;;;;;;24.77;12.38;;;2.10;99.90;;;;;;5089455;28;20058;-53
2021/03/08 01:21:17;;;;;;;25.55;12.82;;;2.10;99.90;;;;;;5085042;28;20038;-56
2021/03/08 01:23:43;;;;;;;23.95;12.80;;;2.10;99.90;;;;;;5090911;28;20502;-56
2021/03/08 01:26:08;;;;;;;26.00;13.52;;;2.10;99.90;;;;;;5088823;28;20031;-56
2021/03/08 01:28:34;;;;;;;25.30;13.00;;;2.10;99.90;;;;;;5090945;28;20028;-56
2021/03/08 01:30:59;;;;;;;25.98;13.32;;;2.10;99.90;;;;;;5087144;28;20111;-56
2021/03/08 01:33:25;;;;;;;26.80;12.07;;;2.10;99.90;;;;;;5090174;28;20081;-54
2021/03/08 01:35:50;;;;;;;20.88;12.07;;;2.20;99.90;;;;;;5087077;28;20032;-54
2021/03/08 01:38:16;;;;;;;24.75;13.77;;;2.20;99.90;;;;;;5088300;28;20481;-56
2021/03/08 01:40:43;;;;;;;22.40;12.93;;;2.30;99.90;;;;;;5086238;28;20059;-61
2021/03/08 01:43:09;;;;;;;26.70;13.15;;;2.30;99.90;;;;;;5082945;28;20030;-54
2021/03/08 01:45:35;;;;;;;31.88;13.45;;;2.40;99.90;;;;;;5084485;28;20098;-55
2021/03/08 01:48:01;;;;;;;22.88;14.05;;;2.40;99.90;;;;;;5089781;28;20036;-56
2021/03/08 01:50:36;;;;;;;22.63;13.23;;;2.40;99.90;;;;;;5086433;28;20614;-56
2021/03/08 01:53:04;;;;;;;24.65;13.10;;;2.40;99.90;;;;;;5083501;28;20097;-56
2021/03/08 01:55:30;;;;;;;24.50;12.10;;;2.40;99.90;;;;;;5080282;28;20028;-55
2021/03/08 01:57:55;;;;;;;24.02;13.32;;;2.40;99.90;;;;;;5088352;28;20031;-63
2021/03/08 02:00:24;;;;;;;26.15;13.20;;;2.50;99.90;;;;;;5086322;28;20139;-56
2021/03/08 02:02:50;;;;;;;21.50;12.25;;;2.70;99.90;;;;;;5085929;28;20070;-52
2021/03/08 02:05:18;;;;;;;21.35;11.95;;;2.70;99.90;;;;;;5096535;28;20043;-56
2021/03/08 02:07:44;;;;;;;27.50;13.15;;;2.80;99.90;;;;;;5089063;28;20032;-56
2021/03/08 02:10:12;;;;;;;27.80;13.02;;;2.80;99.90;;;;;;5087586;28;20067;-54
2021/03/08 02:12:47;;;;;;;22.02;12.95;;;2.90;99.90;;;;;;5087871;28;20016;-51
2021/03/08 02:15:42;;;;;;;28.40;12.88;;;3.00;99.90;;;;;;5085450;28;20020;-52
2021/03/08 02:18:36;;;;;;;20.75;12.50;;;3.00;99.90;;;;;;5088592;28;20051;-54
2021/03/08 02:21:20;;;;;;;24.63;12.45;;;3.00;99.90;;;;;;5071406;28;20452;-55
2021/03/08 02:24:01;;;;;;;21.92;13.07;;;3.10;99.90;;;;;;5084033;28;20050;-54
2021/03/08 02:27:05;;;;;;;25.63;13.55;;;3.10;99.90;;;;;;5083393;28;20655;-52
2021/03/08 02:30:19;;;;;;;26.17;13.10;;;3.00;99.90;;;;;;5086934;28;20070;-52
2021/03/08 02:32:49;;;;;;;24.45;12.52;;;2.80;99.90;;;;;;5082669;28;20039;-52
2021/03/08 02:35:19;;;;;;;25.17;13.05;;;2.70;99.90;;;;;;5088526;28;20027;-51
2021/03/08 02:37:57;;;;;;;28.73;13.65;;;2.60;99.90;;;;;;5092109;28;20039;-54
2021/03/08 02:40:41;;;;;;;27.83;13.68;;;2.50;99.90;;;;;;5089382;28;20020;-53
2021/03/08 02:43:32;;;;;;;26.67;13.68;;;2.50;99.90;;;;;;5085214;28;20024;-52
2021/03/08 02:46:01;;;;;;;26.50;14.38;;;2.30;99.90;;;;;;5077505;28;20032;-52
2021/03/08 02:48:29;;;;;;;30.20;15.35;;;2.40;99.90;;;;;;5088693;28;20462;-52
2021/03/08 02:50:56;;;;;;;24.05;13.25;;;2.30;99.90;;;;;;5088034;28;20116;-51
2021/03/08 02:53:23;;;;;;;27.02;13.18;;;2.30;99.90;;;;;;5091160;28;20031;-54
2021/03/08 02:56:00;;;;;;;26.23;13.90;;;2.20;99.90;;;;;;5092113;28;20471;-51
2021/03/08 02:58:28;;;;;;;26.95;13.85;;;2.10;99.90;;;;;;5090800;28;20092;-53
2021/03/08 03:00:54;;;;;;;28.00;14.45;;;2.00;99.90;;;;;;5088977;28;20019;-51
2021/03/08 03:03:22;;;;;;;38.38;14.40;;;2.00;99.90;;;;;;5088430;28;20043;-52
2021/03/08 03:05:49;;;;;;;26.90;13.95;;;2.00;99.90;;;;;;5087621;28;20034;-53
2021/03/08 03:08:17;;;;;;;27.90;13.25;;;2.00;99.90;;;;;;5085391;28;20032;-53
2021/03/08 03:10:43;;;;;;;26.40;13.43;;;1.90;99.90;;;;;;5092530;28;20525;-55
2021/03/08 03:13:09;;;;;;;26.00;14.40;;;1.90;99.90;;;;;;5085939;28;20115;-54
2021/03/08 03:15:38;;;;;;;31.38;14.65;;;1.90;99.90;;;;;;5085508;28;20086;-53
2021/03/08 03:18:07;;;;;;;28.48;14.63;;;1.80;99.90;;;;;;5088462;28;20043;-55
2021/03/08 03:20:34;;;;;;;32.40;14.85;;;1.80;99.90;;;;;;5090614;28;20064;-52
2021/03/08 03:23:01;;;;;;;29.70;15.48;;;1.80;99.90;;;;;;5087538;28;20109;-56
2021/03/08 03:25:28;;;;;;;30.33;15.32;;;1.80;99.90;;;;;;5089310;28;20481;-54
2021/03/08 03:27:54;;;;;;;31.30;14.27;;;1.80;99.90;;;;;;5087419;28;20085;-53
2021/03/08 03:30:25;;;;;;;33.58;15.75;;;1.80;99.90;;;;;;5086594;28;20033;-56
2021/03/08 03:32:51;;;;;;;31.65;15.63;;;1.80;99.90;;;;;;5089267;28;20024;-55
2021/03/08 03:35:19;;;;;;;30.95;14.38;;;1.80;99.90;;;;;;5083929;28;20028;-56
2021/03/08 03:37:46;;;;;;;33.88;15.65;;;1.80;99.90;;;;;;5086170;28;20050;-56
2021/03/08 03:40:14;;;;;;;30.42;16.75;;;1.80;99.90;;;;;;5081792;28;20402;-56
2021/03/08 03:42:45;;;;;;;39.60;16.60;;;1.80;99.90;;;;;;5089155;28;20433;-54
2021/03/08 03:45:12;;;;;;;30.63;15.68;;;1.70;99.90;;;;;;5086818;28;20078;-53
2021/03/08 03:47:38;;;;;;;33.38;16.35;;;1.70;99.90;;;;;;5071852;28;20032;-54
2021/03/08 03:50:06;;;;;;;38.03;15.88;;;1.70;99.90;;;;;;5091696;28;20030;-51
2021/03/08 03:52:31;;;;;;;30.77;15.82;;;1.80;99.90;;;;;;5092792;28;20028;-57
2021/03/08 03:54:57;;;;;;;32.65;15.73;;;1.80;99.90;;;;;;5090394;28;20032;-55
2021/03/08 03:57:24;;;;;;;35.33;17.27;;;1.80;99.90;;;;;;5092704;28;20076;-52
2021/03/08 03:59:54;;;;;;;34.13;16.20;;;1.80;99.90;;;;;;5087182;28;20094;-51
2021/03/08 04:02:31;;;;;;;32.13;16.20;;;1.80;99.90;;;;;;5090372;28;20042;-54
2021/03/08 04:05:02;;;;;;;33.47;15.98;;;1.80;99.90;;;;;;5091055;28;20023;-56
2021/03/08 04:07:32;;;;;;;31.23;16.23;;;1.70;99.90;;;;;;5093453;28;20039;-52
2021/03/08 04:09:59;;;;;;;37.80;17.35;;;1.70;99.90;;;;;;5091412;28;20576;-56
2021/03/08 04:12:28;;;;;;;39.22;18.60;;;1.70;99.90;;;;;;5092491;28;20032;-55
2021/03/08 04:14:59;;;;;;;44.25;17.20;;;1.70;99.90;;;;;;5091421;28;20111;-54
2021/03/08 04:17:26;;;;;;;38.63;16.95;;;1.70;99.90;;;;;;5092878;28;20132;-56
2021/03/08 04:19:55;;;;;;;35.72;16.35;;;1.70;99.90;;;;;;5092177;28;20052;-56
2021/03/08 04:22:25;;;;;;;32.47;15.88;;;1.60;99.90;;;;;;5092852;28;20020;-54
2021/03/08 04:24:55;;;;;;;37.78;17.80;;;1.60;99.90;;;;;;5084464;28;20031;-54
2021/03/08 04:27:22;;;;;;;31.42;15.07;;;1.60;99.90;;;;;;5084055;28;20028;-54
2021/03/08 04:29:49;;;;;;;36.88;17.60;;;1.60;99.90;;;;;;5082986;28;20062;-53
2021/03/08 04:32:15;;;;;;;32.72;16.92;;;1.60;99.90;;;;;;5091873;28;20031;-54
2021/03/08 04:34:41;;;;;;;40.90;16.75;;;1.70;99.90;;;;;;5091539;28;20019;-54
2021/03/08 04:37:08;;;;;;;37.97;17.83;;;1.70;99.90;;;;;;5087586;28;20032;-55
2021/03/08 04:39:37;;;;;;;33.00;17.27;;;1.70;99.90;;;;;;5086612;28;20103;-56
2021/03/08 04:42:07;;;;;;;37.25;17.48;;;1.70;99.90;;;;;;5083239;28;20024;-56
2021/03/08 04:44:38;;;;;;;30.63;16.13;;;1.80;99.90;;;;;;5067597;28;20639;-56
2021/03/08 04:47:04;;;;;;;32.85;16.90;;;1.80;99.90;;;;;;5088318;28;20378;-56
2021/03/08 04:49:33;;;;;;;40.13;17.58;;;1.90;99.90;;;;;;5091119;28;20032;-55
2021/03/08 04:51:59;;;;;;;40.03;18.08;;;1.90;99.90;;;;;;5088918;28;20119;-55
2021/03/08 04:54:25;;;;;;;42.40;18.08;;;1.80;99.90;;;;;;5085776;28;20040;-52
2021/03/08 04:56:53;;;;;;;37.35;17.15;;;1.80;99.90;;;;;;5081774;28;20070;-55
2021/03/08 04:59:19;;;;;;;43.80;19.48;;;1.80;99.90;;;;;;5083420;28;20051;-54
2021/03/08 05:01:46;;;;;;;46.30;18.02;;;1.80;99.90;;;;;;5083355;28;20063;-56
2021/03/08 05:04:13;;;;;;;46.97;21.40;;;1.80;99.90;;;;;;5091686;28;20020;-56
2021/03/08 05:06:41;;;;;;;46.90;19.42;;;1.70;99.90;;;;;;5090804;28;20545;-53
2021/03/08 05:09:09;;;;;;;42.47;18.92;;;1.70;99.90;;;;;;5086352;28;20020;-55
2021/03/08 05:11:36;;;;;;;57.22;22.92;;;1.60;99.90;;;;;;5083311;28;20044;-55
2021/03/08 05:14:08;;;;;;;52.72;21.02;;;1.60;99.90;;;;;;5081728;28;20024;-54
2021/03/08 05:16:36;;;;;;;52.00;20.80;;;1.50;99.90;;;;;;5088018;28;20024;-56
2021/03/08 05:19:04;;;;;;;49.35;21.70;;;1.50;99.90;;;;;;5090503;28;20085;-54
2021/03/08 05:21:31;;;;;;;51.05;21.58;;;1.50;99.90;;;;;;5092425;28;20031;-54
2021/03/08 05:23:57;;;;;;;50.80;21.45;;;1.50;99.90;;;;;;5088318;28;20032;-53
2021/03/08 05:26:25;;;;;;;57.60;22.20;;;1.40;99.90;;;;;;5084261;28;20516;-51
2021/03/08 05:28:52;;;;;;;54.95;21.17;;;1.40;99.90;;;;;;5084629;28;20032;-51
2021/03/08 05:31:19;;;;;;;57.63;22.80;;;1.40;99.90;;;;;;5081828;28;20033;-52
2021/03/08 05:33:49;;;;;;;51.78;21.98;;;1.40;99.90;;;;;;5088658;28;20485;-52
2021/03/08 05:36:17;;;;;;;51.78;22.70;;;1.40;99.90;;;;;;5090019;28;20315;-52
2021/03/08 05:38:45;;;;;;;53.08;21.50;;;1.40;99.90;;;;;;5087647;28;20032;-54
2021/03/08 05:41:27;;;;;;;57.25;22.40;;;1.40;99.90;;;;;;5082245;28;20509;-52
2021/03/08 05:43:57;;;;;;;52.05;22.42;;;1.40;99.90;;;;;;5081913;28;20077;-53
2021/03/08 05:46:42;;;;;;;51.28;22.17;;;1.40;99.90;;;;;;5087230;28;20034;-52
2021/03/08 05:49:48;;;;;;;50.60;23.50;;;1.50;99.90;;;;;;5069111;28;20028;-52
2021/03/08 05:52:25;;;;;;;52.53;23.08;;;1.40;99.90;;;;;;5080226;28;20020;-52
2021/03/08 05:55:19;;;;;;;52.10;21.90;;;1.40;99.90;;;;;;5082107;28;20020;-53
2021/03/08 05:58:07;;;;;;;58.50;22.92;;;1.40;99.90;;;;;;5081190;28;20024;-55
2021/03/08 06:00:40;;;;;;;60.60;23.95;;;1.40;99.90;;;;;;5083155;28;20453;-55
2021/03/08 06:03:43;;;;;;;38.00;16.75;;;1.40;99.90;;;;;;5089603;28;20463;-56
2021/03/08 06:06:27;;;;;;;53.47;22.85;;;1.40;99.90;;;;;;5088457;28;20051;-55
2021/03/08 06:09:17;;;;;;;64.88;24.08;;;1.50;99.90;;;;;;5085699;28;20490;-52
2021/03/08 06:11:51;;;;;;;50.95;23.27;;;1.50;99.90;;;;;;5090618;28;20020;-54
2021/03/08 06:14:24;;;;;;;52.75;22.45;;;1.50;99.90;;;;;;5087537;28;20020;-53
2021/03/08 06:16:50;;;;;;;61.88;24.45;;;1.60;99.90;;;;;;5087184;28;20039;-53
2021/03/08 06:19:18;;;;;;;53.20;22.90;;;1.60;99.90;;;;;;5084482;28;20028;-54
2021/03/08 06:21:43;;;;;;;55.40;22.50;;;1.70;99.90;;;;;;5084521;28;20039;-52
2021/03/08 06:24:11;;;;;;;57.45;23.25;;;1.70;99.90;;;;;;5087188;28;20028;-58
2021/03/08 06:26:38;;;;;;;53.35;23.63;;;1.70;99.90;;;;;;5089310;28;20024;-53
2021/03/08 06:29:08;;;;;;;64.65;23.02;;;1.70;99.90;;;;;;5088003;28;20385;-53
2021/03/08 06:31:36;;;;;;;49.17;22.13;;;1.70;99.90;;;;;;5092589;28;21283;-54
2021/03/08 06:34:02;;;;;;;55.33;22.20;;;1.80;99.90;;;;;;5090977;28;20385;-50
2021/03/08 06:36:31;;;;;;;63.80;23.55;;;1.80;99.90;;;;;;5091123;28;20036;-54
2021/03/08 06:38:57;;;;;;;49.90;21.52;;;1.80;99.90;;;;;;5076195;28;20115;-55
2021/03/08 06:41:22;;;;;;;47.92;21.50;;;1.90;99.90;;;;;;5086983;28;20202;-54
2021/03/08 06:43:48;;;;;;;53.95;21.92;;;1.90;99.90;;;;;;5078170;28;20075;-52
2021/03/08 06:46:15;;;;;;;50.08;22.02;;;1.90;99.90;;;;;;5087270;28;20059;-54
2021/03/08 06:48:41;;;;;;;54.25;21.65;;;2.00;99.90;;;;;;5083307;28;20546;-52
2021/03/08 06:51:13;;;;;;;54.35;22.48;;;2.00;99.90;;;;;;5082584;28;20043;-54
2021/03/08 06:53:43;;;;;;;44.80;20.75;;;2.10;99.90;;;;;;5088956;28;20021;-55
2021/03/08 06:56:18;;;;;;;60.70;22.95;;;2.10;99.90;;;;;;5091235;28;20055;-53
2021/03/08 06:58:45;;;;;;;52.10;21.67;;;2.20;99.90;;;;;;5084019;28;20039;-56
2021/03/08 07:01:32;;;;;;;52.22;21.80;;;2.20;99.90;;;;;;5082010;28;20121;-53
2021/03/08 07:03:59;;;;;;;51.17;21.60;;;2.30;99.90;;;;;;5090337;28;20031;-50
2021/03/08 07:06:25;;;;;;;50.55;21.90;;;2.40;99.90;;;;;;5088208;28;20112;-54
2021/03/08 07:08:51;;;;;;;57.33;22.42;;;2.40;99.90;;;;;;5091037;28;20166;-50
2021/03/08 07:11:23;;;;;;;52.15;21.80;;;2.50;99.90;;;;;;5091864;28;20016;-50
2021/03/08 07:13:49;;;;;;;67.22;23.83;;;2.60;99.90;;;;;;5088866;28;20099;-54
2021/03/08 07:16:16;;;;;;;63.10;24.90;;;2.70;99.90;;;;;;5084936;28;20177;-54
2021/03/08 07:18:42;;;;;;;58.67;24.13;;;2.70;99.90;;;;;;5098343;28;20036;-53
2021/03/08 07:21:14;;;;;;;57.00;22.95;;;2.80;99.90;;;;;;5093605;28;20024;-55
2021/03/08 07:23:41;;;;;;;64.72;26.52;;;2.90;99.90;;;;;;5091414;28;20166;-52
2021/03/08 07:26:08;;;;;;;65.05;24.90;;;2.90;99.90;;;;;;5091983;28;20028;-53
2021/03/08 07:28:34;;;;;;;66.22;26.20;;;3.00;99.90;;;;;;5092540;28;20466;-51
2021/03/08 07:31:00;;;;;;;55.92;24.35;;;3.10;99.90;;;;;;5091735;28;20028;-53
2021/03/08 07:33:26;;;;;;;63.85;26.85;;;3.20;99.90;;;;;;5092847;28;20028;-54
2021/03/08 07:35:53;;;;;;;64.60;25.08;;;3.20;99.90;;;;;;5090637;28;20085;-51
2021/03/08 07:38:35;;;;;;;62.63;27.55;;;3.30;99.90;;;;;;5094577;28;20097;-52
2021/03/08 07:41:16;;;;;;;55.10;25.50;;;3.30;99.90;;;;;;5091453;28;20113;-54
2021/03/08 07:43:42;;;;;;;64.78;26.48;;;3.40;99.90;;;;;;5089151;28;20406;-55
2021/03/08 07:46:32;;;;;;;60.22;26.75;;;3.40;99.90;;;;;;5087333;28;20035;-55
2021/03/08 07:48:59;;;;;;;65.32;26.50;;;3.50;99.90;;;;;;5088700;28;20023;-51
2021/03/08 07:51:25;;;;;;;68.95;29.02;;;3.50;99.90;;;;;;5090083;28;20069;-54
2021/03/08 07:54:11;;;;;;;69.50;28.17;;;3.60;99.90;;;;;;5087358;28;20024;-54
2021/03/08 07:56:38;;;;;;;60.28;26.05;;;3.70;99.90;;;;;;5087025;28;20509;-51
2021/03/08 07:59:03;;;;;;;66.72;27.52;;;3.80;99.90;;;;;;5091948;28;20035;-54
2021/03/08 08:01:29;;;;;;;59.92;27.40;;;3.80;99.90;;;;;;5091277;28;20027;-50
2021/03/08 08:03:54;;;;;;;66.85;28.13;;;3.90;99.90;;;;;;5090958;28;20057;-54
2021/03/08 08:06:22;;;;;;;66.53;27.90;;;4.00;99.90;;;;;;5088254;28;20044;-55
2021/03/08 08:08:48;;;;;;;62.58;27.80;;;4.10;99.90;;;;;;5090807;28;20028;-55
2021/03/08 08:11:16;;;;;;;68.68;31.98;;;4.10;99.90;;;;;;5091245;28;20035;-56
2021/03/08 08:13:58;;;;;;;67.63;28.52;;;4.20;99.90;;;;;;5089601;28;20039;-58
2021/03/08 08:16:29;;;;;;;66.38;29.17;;;4.10;99.90;;;;;;5085399;28;20082;-51
2021/03/08 08:19:07;;;;;;;72.60;31.08;;;4.10;99.90;;;;;;5090574;28;20125;-55
2021/03/08 08:21:35;;;;;;;86.60;30.05;;;4.20;99.90;;;;;;5092274;28;20501;-51
2021/03/08 08:24:06;;;;;;;77.50;31.63;;;4.20;99.90;;;;;;5091398;28;20024;-51
2021/03/08 08:26:32;;;;;;;72.70;32.45;;;4.30;99.90;;;;;;5094467;28;20038;-55
2021/03/08 08:28:58;;;;;;;69.72;29.15;;;4.40;99.90;;;;;;5090419;28;20033;-55
2021/03/08 08:31:25;;;;;;;70.10;29.67;;;4.50;99.90;;;;;;5089285;28;20503;-55
2021/03/08 08:33:50;;;;;;;76.22;32.00;;;4.60;99.90;;;;;;5088958;28;20486;-54
2021/03/08 08:36:24;;;;;;;74.05;30.48;;;4.70;99.90;;;;;;5089736;28;20028;-55
2021/03/08 08:38:55;;;;;;;72.28;32.03;;;4.70;99.90;;;;;;5090762;28;20038;-55
2021/03/08 08:41:32;;;;;;;68.80;31.63;;;4.70;99.90;;;;;;5091836;28;20034;-55
2021/03/08 08:44:07;;;;;;;74.07;32.15;;;4.70;99.90;;;;;;5091454;28;20128;-58
2021/03/08 08:46:33;;;;;;;;;;;4.80;99.90;;;;;;5094139;28;20047;-53
2021/03/08 08:49:16;;;;;;;81.40;34.15;;;4.80;99.90;;;;;;5090842;28;19916;-53
2021/03/08 08:51:54;;;;;;;79.07;33.47;;;4.80;99.90;;;;;;5090798;28;20031;-51
2021/03/08 08:54:29;;;;;;;86.32;34.67;;;4.80;99.90;;;;;;5087278;28;20374;-54
2021/03/08 08:57:01;;;;;;;88.43;35.28;;;4.80;99.90;;;;;;5090545;28;20030;-54
2021/03/08 08:59:27;;;;;;;86.50;35.58;;;4.80;99.90;;;;;;5089220;28;20028;-51
2021/03/08 09:02:16;;;;;;;85.18;34.28;;;4.90;99.90;;;;;;5089014;28;20516;-54
2021/03/08 09:04:42;;;;;;;82.32;34.40;;;4.90;99.90;;;;;;5092594;28;20028;-55
2021/03/08 09:07:19;;;;;;;80.15;33.50;;;4.90;99.90;;;;;;5083536;28;20076;-55
2021/03/08 09:09:48;;;;;;;82.90;35.40;;;5.00;99.90;;;;;;5088720;28;20027;-54
2021/03/08 09:12:28;;;;;;;85.68;35.15;;;5.10;99.90;;;;;;5089168;28;20032;-54
2021/03/08 09:15:22;;;;;;;84.63;36.33;;;5.10;99.90;;;;;;5088614;28;20020;-53
2021/03/08 09:17:51;;;;;;;97.50;38.05;;;5.10;99.90;;;;;;5085211;28;20031;-55
2021/03/08 09:20:18;;;;;;;92.95;38.92;;;5.20;99.90;;;;;;5092512;28;20040;-55
2021/03/08 09:22:50;;;;;;;92.18;38.95;;;5.20;99.90;;;;;;5089072;28;20028;-56
2021/03/08 09:25:23;;;;;;;90.70;37.17;;;5.30;99.90;;;;;;5086716;28;20036;-54
2021/03/08 09:27:58;;;;;;;95.78;40.60;;;5.30;99.90;;;;;;5091119;28;20028;-55
2021/03/08 09:30:44;;;;;;;103.35;42.88;;;5.30;99.90;;;;;;5084780;28;20028;-55
2021/03/08 09:33:12;;;;;;;107.97;43.50;;;5.30;99.90;;;;;;5094915;28;20024;-54
2021/03/08 09:35:50;;;;;;;90.10;39.22;;;5.30;99.90;;;;;;5097531;28;20024;-54
2021/03/08 09:38:18;;;;;;;99.70;41.80;;;5.30;99.90;;;;;;5087327;28;20035;-53
2021/03/08 09:40:48;;;;;;;99.00;41.85;;;5.30;99.90;;;;;;5072223;28;20115;-51
2021/03/08 09:43:34;;;;;;;99.15;41.15;;;5.30;99.90;;;;;;5092847;28;20035;-55
2021/03/08 09:46:07;;;;;;;104.97;42.55;;;5.30;99.90;;;;;;5089867;28;20367;-54
2021/03/08 09:48:41;;;;;;;101.90;42.30;;;5.30;99.90;;;;;;5083390;28;20028;-54
2021/03/08 09:51:12;;;;;;;99.78;43.97;;;5.30;99.90;;;;;;5086175;28;20111;-52
2021/03/08 09:53:46;;;;;;;99.25;41.75;;;5.30;99.90;;;;;;5090173;28;20032;-55
2021/03/08 09:56:16;;;;;;;98.20;42.13;;;5.40;99.90;;;;;;5080343;28;20135;-51
2021/03/08 09:58:43;;;;;;;99.50;43.50;;;5.20;99.90;;;;;;5090137;28;20031;-54
2021/03/08 10:01:18;;;;;;;100.63;41.92;;;5.20;99.90;;;;;;5088240;28;20020;-52
2021/03/08 10:03:45;;;;;;;103.28;41.45;;;5.20;99.90;;;;;;5088050;28;20488;-55
2021/03/08 10:06:29;;;;;;;103.65;44.88;;;5.30;99.90;;;;;;5084393;28;20394;-56
2021/03/08 10:08:56;;;;;;;110.00;46.28;;;5.30;99.90;;;;;;5067153;28;20024;-54
2021/03/08 10:11:26;;;;;;;108.82;46.92;;;5.30;99.90;;;;;;5088466;28;20103;-52
2021/03/08 10:13:53;;;;;;;110.10;45.00;;;5.30;99.90;;;;;;5088385;28;20070;-51
2021/03/08 10:16:29;;;;;;;107.50;44.88;;;5.30;99.90;;;;;;5087098;28;20082;-55
2021/03/08 10:18:56;;;;;;;107.05;44.13;;;5.30;99.90;;;;;;5088123;28;20032;-55
2021/03/08 10:21:22;;;;;;;113.88;44.67;;;5.30;99.90;;;;;;5089797;28;20104;-52
2021/03/08 10:23:49;;;;;;;103.97;43.50;;;5.30;99.90;;;;;;5084528;28;20043;-56
2021/03/08 10:26:17;;;;;;;104.97;44.60;;;5.30;99.90;;;;;;5092063;28;20042;-54
2021/03/08 10:28:52;;;;;;;107.88;44.00;;;5.30;99.90;;;;;;5075517;28;20545;-59
2021/03/08 10:31:26;;;;;;;107.70;43.00;;;5.40;99.90;;;;;;5086585;28;20130;-55
2021/03/08 10:33:56;;;;;;;123.05;44.80;;;5.40;99.90;;;;;;5085091;28;20562;-52
2021/03/08 10:36:24;;;;;;;103.63;43.72;;;5.40;99.90;;;;;;5086491;28;20398;-51
2021/03/08 10:39:11;;;;;;;107.97;45.00;;;5.50;99.90;;;;;;5091747;28;20384;-51
2021/03/08 10:41:39;;;;;;;110.07;45.67;;;5.50;99.90;;;;;;5082061;28;20029;-51
2021/03/08 10:44:06;;;;;;;102.75;42.33;;;5.50;99.90;;;;;;5083895;28;20023;-54
2021/03/08 10:46:33;;;;;;;103.60;42.80;;;5.60;99.90;;;;;;5088627;28;20039;-51
2021/03/08 10:49:05;;;;;;;97.60;42.08;;;5.70;99.90;;;;;;5093496;28;20035;-51
2021/03/08 10:51:32;;;;;;;103.38;42.38;;;5.80;99.90;;;;;;5085873;28;20531;-52
2021/03/08 10:54:18;;;;;;;112.00;43.50;;;5.80;99.90;;;;;;5086672;28;20024;-54
2021/03/08 10:56:44;;;;;;;103.32;42.90;;;5.80;99.90;;;;;;5086857;28;20017;-54
2021/03/08 10:59:28;;;;;;;97.55;42.97;;;5.90;99.90;;;;;;5086163;28;20028;-53
2021/03/08 11:02:09;;;;;;;98.13;43.38;;;6.00;99.90;;;;;;5085707;28;20036;-51
2021/03/08 11:04:35;;;;;;;114.05;45.28;;;6.20;99.90;;;;;;5086747;28;20122;-54
2021/03/08 11:07:01;;;;;;;109.05;46.10;;;6.30;99.90;;;;;;5087886;28;20031;-51
2021/03/08 11:09:34;;;;;;;108.50;43.20;;;6.30;99.90;;;;;;5086047;28;20042;-54
2021/03/08 11:12:01;;;;;;;114.43;45.33;;;6.20;99.90;;;;;;5087393;28;20026;-52
2021/03/08 11:14:27;;;;;;;102.45;44.15;;;6.20;99.90;;;;;;5082981;28;20016;-55
2021/03/08 11:16:54;;;;;;;115.55;46.83;;;6.30;99.90;;;;;;5086031;28;20132;-56
2021/03/08 11:19:25;;;;;;;110.97;46.05;;;6.30;99.90;;;;;;5089231;28;20081;-54
2021/03/08 11:22:08;;;;;;;110.78;45.88;;;6.40;99.90;;;;;;5088405;28;20079;-53
2021/03/08 11:24:50;;;;;;;105.70;46.40;;;6.30;99.90;;;;;;5087973;28;20027;-55
2021/03/08 11:27:24;;;;;;;115.32;47.67;;;6.20;99.90;;;;;;5085983;28;20036;-54
2021/03/08 11:29:58;;;;;;;117.40;49.47;;;6.20;99.90;;;;;;5084471;28;20020;-55
2021/03/08 11:32:24;;;;;;;117.60;49.78;;;6.30;99.90;;;;;;5085228;28;20032;-53
2021/03/08 11:34:52;;;;;;;117.38;49.13;;;6.40;99.90;;;;;;5090934;28;20115;-53
2021/03/08 11:37:19;;;;;;;111.78;49.40;;;6.40;99.90;;;;;;5087906;28;20024;-53
2021/03/08 11:39:47;;;;;;;113.97;47.80;;;6.40;99.90;;;;;;5083528;28;20036;-50
2021/03/08 11:42:14;;;;;;;113.07;49.38;;;6.50;99.90;;;;;;5089576;28;20406;-52
2021/03/08 11:44:40;;;;;;;126.47;51.40;;;6.40;99.90;;;;;;5084449;28;20435;-54
2021/03/08 11:47:07;;;;;;;119.90;49.88;;;6.50;99.90;;;;;;5085291;28;20020;-55
2021/03/08 11:49:33;;;;;;;112.00;47.83;;;6.50;99.90;;;;;;5088295;28;20089;-51
2021/03/08 11:51:59;;;;;;;118.15;47.88;;;6.30;99.90;;;;;;5084063;28;20103;-53
2021/03/08 11:54:25;;;;;;;123.35;50.92;;;6.40;99.90;;;;;;5090008;28;20016;-53
2021/03/08 11:56:51;;;;;;;136.30;53.50;;;6.60;99.90;;;;;;5090938;28;20023;-55
2021/03/08 11:59:17;;;;;;;123.28;51.30;;;6.60;99.90;;;;;;5091995;28;20099;-54
2021/03/08 12:01:43;;;;;;;116.68;50.38;;;6.60;99.90;;;;;;5085145;28;20490;-54
2021/03/08 12:04:08;;;;;;;116.25;51.38;;;6.70;99.90;;;;;;5084970;28;20039;-55
2021/03/08 12:06:34;;;;;;;130.20;52.55;;;6.80;99.90;;;;;;5092396;28;20024;-52
2021/03/08 12:09:00;;;;;;;124.10;52.15;;;6.90;99.90;;;;;;5090452;28;20024;-54
2021/03/08 12:11:26;;;;;;;123.57;55.63;;;7.10;99.90;;;;;;5093087;28;20032;-52
2021/03/08 12:13:51;;;;;;;123.15;49.97;;;7.00;99.90;;;;;;5085438;28;20020;-51
2021/03/08 12:16:17;;;;;;;113.18;48.28;;;6.90;99.90;;;;;;5085107;28;20486;-55
2021/03/08 12:18:43;;;;;;;186.70;53.40;;;6.90;99.90;;;;;;5090514;28;20032;-55
2021/03/08 12:21:08;;;;;;;139.05;52.15;;;7.00;99.90;;;;;;5088445;28;20031;-55
2021/03/08 12:23:34;;;;;;;124.10;50.78;;;7.10;99.90;;;;;;5085402;28;20036;-54
2021/03/08 12:26:00;;;;;;;123.43;51.95;;;7.20;99.90;;;;;;5085392;28;20039;-51
2021/03/08 12:28:26;;;;;;;122.15;51.40;;;7.10;99.90;;;;;;5084781;28;20036;-51
2021/03/08 12:30:52;;;;;;;123.88;54.53;;;7.20;99.90;;;;;;5089861;28;20029;-53
2021/03/08 12:33:18;;;;;;;119.95;49.53;;;7.20;99.90;;;;;;5088052;28;20024;-51
2021/03/08 12:35:44;;;;;;;118.82;50.58;;;7.20;99.90;;;;;;5088828;28;20385;-52
2021/03/08 12:38:10;;;;;;;122.45;49.10;;;7.50;99.90;;;;;;5086766;28;20077;-55
2021/03/08 12:40:36;;;;;;;117.78;50.40;;;7.70;99.90;;;;;;5089185;28;20028;-53
2021/03/08 12:43:02;;;;;;;128.27;54.25;;;7.70;99.90;;;;;;5087353;28;20028;-54
2021/03/08 12:45:28;;;;;;;140.73;57.08;;;7.60;99.90;;;;;;5088061;28;20039;-55
2021/03/08 12:47:53;;;;;;;140.95;60.90;;;7.60;99.90;;;;;;5084549;28;20024;-54
2021/03/08 12:50:20;;;;;;;134.35;60.17;;;7.60;99.90;;;;;;5092057;28;20500;-55